createdAt,value
2022-08-03T00:01:36.213Z,43.86
2022-08-03T00:04:38.910Z,43.88
2022-08-03T00:07:41.262Z,44.17
2022-08-03T00:10:44.073Z,44.25
2022-08-03T00:13:46.359Z,44.44
2022-08-03T00:16:49.099Z,44.57
2022-08-03T00:19:51.751Z,44.71
2022-08-03T00:22:54.494Z,44.80
2022-08-03T00:25:57.173Z,44.93
2022-08-03T00:28:59.873Z,44.99
2022-08-03T00:32:02.070Z,45.03
2022-08-03T00:35:08.119Z,45.18
2022-08-03T00:38:12.639Z,45.30
2022-08-03T00:41:15.718Z,45.42
2022-08-03T00:44:18.042Z,45.51
2022-08-03T00:47:21.669Z,45.73
2022-08-03T00:50:24.862Z,45.93
2022-08-03T00:53:27.695Z,46.07
2022-08-03T00:56:30.058Z,46.23
2022-08-03T00:59:32.831Z,46.54
2022-08-03T01:02:35.210Z,46.63
2022-08-03T01:05:58.147Z,46.81
2022-08-03T01:09:00.369Z,47.01
2022-08-03T01:12:03.039Z,47.25
2022-08-03T01:15:23.733Z,47.53
2022-08-03T01:18:37.403Z,47.78
2022-08-03T01:21:58.108Z,47.90
2022-08-03T01:25:14.657Z,48.08
2022-08-03T01:28:20.032Z,48.27
2022-08-03T01:31:26.121Z,48.38
2022-08-03T01:34:31.491Z,48.47
2022-08-03T01:37:39.951Z,48.63
2022-08-03T01:40:43.535Z,48.63
2022-08-03T01:44:28.487Z,48.71
2022-08-03T01:47:12.808Z,48.77
2022-08-03T01:50:16.867Z,48.86
2022-08-03T01:53:21.330Z,48.84
2022-08-03T01:56:25.062Z,49.09
2022-08-03T01:59:29.056Z,49.31
2022-08-03T02:02:34.584Z,49.46
2022-08-03T02:05:39.279Z,49.63
2022-08-03T02:08:43.343Z,49.79
2022-08-03T02:11:46.785Z,49.91
2022-08-03T02:14:50.237Z,49.93
2022-08-03T02:17:53.490Z,49.94
2022-08-03T02:20:56.025Z,49.76
2022-08-03T02:23:58.778Z,49.72
2022-08-03T02:27:01.353Z,49.74
2022-08-03T02:30:07.518Z,49.93
2022-08-03T02:33:12.316Z,49.88
2022-08-03T02:36:15.612Z,49.94
2022-08-03T02:39:20.672Z,50.02
2022-08-03T02:42:24.125Z,50.07
2022-08-03T02:45:27.934Z,50.21
2022-08-03T02:48:32.741Z,50.34
2022-08-03T02:51:36.542Z,50.16
2022-08-03T02:54:39.828Z,50.34
2022-08-03T02:57:43.436Z,50.42
2022-08-03T03:00:46.270Z,50.61
2022-08-03T03:03:49.843Z,50.73
2022-08-03T03:06:54.096Z,50.85
2022-08-03T03:09:58.369Z,50.97
2022-08-03T03:13:00.942Z,51.03
2022-08-03T03:16:04.801Z,51.11
2022-08-03T03:19:07.825Z,51.24
2022-08-03T03:22:10.818Z,51.41
2022-08-03T03:25:13.259Z,51.28
2022-08-03T03:28:15.745Z,51.58
2022-08-03T03:31:18.338Z,51.83
2022-08-03T03:34:20.981Z,51.96
2022-08-03T03:37:23.860Z,52.27
2022-08-03T03:40:26.813Z,52.31
2022-08-03T03:43:29.558Z,52.31
2022-08-03T03:46:32.087Z,52.17
2022-08-03T03:49:34.776Z,52.50
2022-08-03T03:52:37.478Z,52.49
2022-08-03T03:55:58.984Z,52.62
2022-08-03T03:59:03.245Z,52.50
2022-08-03T04:02:06.517Z,52.76
2022-08-03T04:05:28.426Z,52.53
2022-08-03T04:08:49.402Z,52.79
2022-08-03T04:11:53.287Z,52.96
2022-08-03T04:14:56.982Z,53.05
2022-08-03T04:18:00.447Z,53.01
2022-08-03T04:21:03.713Z,53.09
2022-08-03T04:24:08.416Z,52.99
2022-08-03T04:27:12.806Z,53.04
2022-08-03T04:30:16.007Z,53.00
2022-08-03T04:33:19.498Z,52.94
2022-08-03T04:36:25.077Z,52.98
2022-08-03T04:39:28.503Z,52.81
2022-08-03T04:42:32.729Z,52.92
2022-08-03T04:45:35.764Z,53.01
2022-08-03T04:48:43.516Z,53.06
2022-08-03T04:51:48.002Z,52.92
2022-08-03T04:54:51.233Z,52.61
2022-08-03T04:57:53.571Z,52.87
2022-08-03T05:00:56.256Z,52.76
2022-08-03T05:03:58.604Z,52.62
2022-08-03T05:07:12.319Z,52.54
2022-08-03T05:10:16.305Z,52.35
2022-08-03T05:13:20.296Z,52.52
2022-08-03T05:16:22.552Z,52.71
2022-08-03T05:19:25.270Z,53.00
2022-08-03T05:22:27.636Z,53.12
2022-08-03T05:25:30.623Z,53.28
2022-08-03T05:28:32.896Z,53.25
2022-08-03T05:31:35.717Z,53.37
2022-08-03T05:34:38.043Z,53.49
2022-08-03T05:37:40.733Z,53.37
2022-08-03T05:41:22.580Z,53.34
2022-08-03T05:44:20.128Z,53.21
2022-08-03T05:47:22.655Z,52.95
2022-08-03T05:50:25.597Z,52.87
2022-08-03T05:53:27.816Z,52.70
2022-08-03T05:56:30.712Z,52.71
2022-08-03T05:59:38.518Z,52.34
2022-08-03T06:02:42.182Z,52.19
2022-08-03T06:05:55.579Z,51.81
2022-08-03T06:09:02.932Z,51.58
2022-08-03T06:12:05.494Z,51.56
2022-08-03T06:15:08.326Z,51.30
2022-08-03T06:18:14.228Z,51.32
2022-08-03T06:21:16.740Z,50.87
2022-08-03T06:24:19.322Z,50.29
2022-08-03T06:27:36.416Z,49.93
2022-08-03T06:30:40.313Z,49.10
2022-08-03T06:33:48.312Z,48.58
2022-08-03T06:37:05.883Z,48.37
2022-08-03T06:40:08.610Z,47.88
2022-08-03T06:43:12.711Z,47.11
2022-08-03T06:46:16.352Z,47.04
2022-08-03T06:49:19.196Z,46.41
2022-08-03T06:52:37.566Z,46.05
2022-08-03T06:55:42.502Z,45.27
2022-08-03T06:58:45.405Z,45.01
2022-08-03T07:01:48.124Z,44.43
2022-08-03T07:04:50.666Z,43.61
2022-08-03T07:07:57.654Z,43.06
2022-08-03T07:11:00.193Z,42.32
2022-08-03T07:14:02.770Z,42.25
2022-08-03T07:17:11.828Z,41.33
2022-08-03T07:20:15.290Z,41.09
2022-08-03T07:23:19.340Z,40.70
2022-08-03T07:26:22.712Z,40.40
2022-08-03T07:29:25.266Z,39.58
2022-08-03T07:32:31.473Z,38.71
2022-08-03T07:35:34.221Z,38.80
2022-08-03T07:38:39.790Z,38.48
2022-08-03T07:41:42.289Z,37.44
2022-08-03T07:44:44.771Z,37.36
2022-08-03T07:47:53.650Z,36.92
2022-08-03T07:50:56.607Z,36.51
2022-08-03T07:54:00.787Z,35.86
2022-08-03T07:57:03.448Z,35.48
2022-08-03T08:00:07.440Z,34.63
2022-08-03T08:03:14.319Z,33.94
2022-08-03T08:06:18.352Z,33.27
2022-08-03T08:09:20.538Z,33.11
2022-08-03T08:12:23.305Z,32.37
2022-08-03T08:15:25.683Z,32.13
2022-08-03T08:18:31.836Z,31.53
2022-08-03T08:21:53.025Z,30.92
2022-08-03T08:24:56.994Z,29.25
2022-08-03T08:28:29.927Z,29.67
2022-08-03T08:31:25.271Z,29.60
2022-08-03T08:34:27.532Z,28.71
2022-08-03T08:37:30.329Z,28.21
2022-08-03T08:40:32.943Z,27.15
2022-08-03T08:43:35.702Z,26.13
2022-08-03T08:46:38.508Z,27.19
2022-08-03T08:49:53.460Z,27.50
2022-08-03T08:53:06.362Z,26.89
2022-08-03T08:56:16.982Z,25.89
2022-08-03T08:59:20.318Z,24.37
2022-08-03T09:02:29.264Z,24.35
2022-08-03T09:05:54.857Z,23.98
2022-08-03T09:08:56.077Z,23.18
2022-08-03T09:12:20.843Z,22.17
2022-08-03T09:15:22.677Z,21.74
2022-08-03T09:18:29.003Z,21.24
2022-08-03T09:21:35.413Z,20.67
2022-08-03T09:24:41.440Z,20.22
2022-08-03T09:27:45.141Z,19.99
2022-08-03T09:30:59.849Z,19.57
2022-08-03T09:34:07.305Z,19.15
2022-08-03T09:37:14.985Z,18.85
2022-08-03T09:40:34.063Z,18.79
2022-08-03T09:43:46.162Z,18.25
2022-08-03T09:46:52.676Z,17.65
2022-08-03T09:50:13.036Z,17.58
2022-08-03T09:53:15.979Z,17.00
2022-08-03T09:56:34.378Z,16.84
2022-08-03T09:59:41.406Z,17.27
2022-08-03T10:02:44.707Z,17.66
2022-08-03T10:05:47.554Z,17.10
2022-08-03T10:09:10.148Z,16.39
2022-08-03T10:12:13.833Z,17.01
2022-08-03T10:16:23.785Z,16.97
2022-08-03T10:18:39.187Z,16.58
2022-08-03T10:21:49.424Z,15.59
2022-08-03T10:24:54.308Z,15.10
2022-08-03T10:27:57.383Z,14.76
2022-08-03T10:31:00.913Z,14.92
2022-08-03T10:34:05.002Z,15.04
2022-08-03T10:37:10.248Z,15.34
2022-08-03T10:40:27.861Z,16.57
2022-08-03T10:43:56.695Z,18.56
2022-08-03T10:46:59.160Z,20.87
2022-08-03T10:50:02.265Z,20.66
2022-08-03T10:53:08.942Z,19.44
2022-08-03T10:56:50.680Z,18.81
2022-08-03T10:59:55.772Z,18.08
2022-08-03T11:03:14.441Z,17.52
2022-08-03T11:06:19.081Z,17.16
2022-08-03T11:09:22.243Z,17.17
2022-08-03T11:12:30.167Z,16.62
2022-08-03T11:15:34.876Z,18.06
2022-08-03T11:18:37.121Z,19.50
2022-08-03T11:21:51.958Z,20.87
2022-08-03T11:24:54.448Z,22.38
2022-08-03T11:28:19.866Z,23.34
2022-08-03T11:31:46.802Z,23.98
2022-08-03T11:35:03.857Z,24.37
2022-08-03T11:38:07.320Z,24.82
2022-08-03T11:41:30.031Z,24.77
2022-08-03T11:44:50.589Z,24.04
2022-08-03T11:47:54.680Z,22.50
2022-08-03T11:50:57.066Z,21.28
2022-08-03T11:54:01.501Z,19.92
2022-08-03T11:57:03.838Z,19.40
2022-08-03T12:00:27.562Z,18.52
2022-08-03T12:03:32.687Z,18.79
2022-08-03T12:06:54.813Z,19.80
2022-08-03T12:10:14.491Z,19.86
2022-08-03T12:14:44.210Z,19.74
2022-08-03T12:16:40.398Z,19.18
2022-08-03T12:19:44.615Z,18.91
2022-08-03T12:22:47.097Z,18.30
2022-08-03T12:25:49.696Z,18.23
2022-08-03T12:28:52.442Z,17.81
2022-08-03T12:31:55.970Z,18.21
2022-08-03T12:35:01.386Z,18.57
2022-08-03T12:38:05.138Z,18.43
2022-08-03T12:41:08.835Z,18.27
2022-08-03T12:44:11.381Z,17.93
2022-08-03T12:47:18.801Z,17.87
2022-08-03T12:50:34.264Z,18.15
2022-08-03T12:53:37.095Z,18.77
2022-08-03T12:56:56.875Z,19.20
2022-08-03T13:00:17.430Z,19.68
2022-08-03T13:03:42.626Z,19.33
2022-08-03T13:07:02.452Z,19.14
2022-08-03T13:10:08.185Z,18.91
2022-08-03T13:13:11.196Z,19.03
2022-08-03T13:16:18.985Z,19.14
2022-08-03T13:19:21.997Z,19.05
2022-08-03T13:22:30.455Z,19.03
2022-08-03T13:25:32.996Z,19.13
2022-08-03T13:28:35.441Z,18.88
2022-08-03T13:31:37.988Z,18.38
2022-08-03T13:34:53.759Z,18.48
2022-08-03T13:37:56.329Z,18.89
2022-08-03T13:41:01.086Z,18.64
2022-08-03T13:44:29.431Z,18.90
2022-08-03T13:47:29.927Z,18.79
2022-08-03T13:50:33.232Z,18.93
2022-08-03T13:53:35.691Z,19.28
2022-08-03T13:56:38.345Z,19.84
2022-08-03T13:59:40.788Z,18.76
2022-08-03T14:02:44.420Z,18.79
2022-08-03T14:05:48.199Z,19.55
2022-08-03T14:08:51.018Z,19.50
2022-08-03T14:12:08.378Z,18.96
2022-08-03T14:15:13.046Z,19.39
2022-08-03T14:18:27.860Z,19.89
2022-08-03T14:21:34.511Z,19.67
2022-08-03T14:24:37.216Z,19.86
2022-08-03T14:27:39.460Z,20.10
2022-08-03T14:30:42.120Z,20.14
2022-08-03T14:33:44.356Z,20.21
2022-08-03T14:36:47.257Z,19.69
2022-08-03T14:40:05.174Z,20.52
2022-08-03T14:43:07.998Z,20.51
2022-08-03T14:46:10.198Z,20.76
2022-08-03T14:50:30.698Z,20.64
2022-08-03T14:52:37.978Z,21.00
2022-08-03T14:55:50.264Z,20.62
2022-08-03T14:58:53.289Z,20.54
2022-08-03T15:02:02.978Z,20.63
2022-08-03T15:05:10.754Z,20.43
2022-08-03T15:08:13.574Z,20.51
2022-08-03T15:11:15.908Z,20.29
2022-08-03T15:14:18.688Z,20.14
2022-08-03T15:17:24.643Z,20.74
2022-08-03T15:20:42.460Z,21.06
2022-08-03T15:23:48.759Z,20.86
2022-08-03T15:26:52.304Z,20.84
2022-08-03T15:30:07.283Z,21.55
2022-08-03T15:33:12.454Z,21.99
2022-08-03T15:36:14.805Z,22.18
2022-08-03T15:39:19.654Z,21.81
2022-08-03T15:42:22.021Z,22.00
2022-08-03T15:45:28.252Z,21.85
2022-08-03T15:48:37.733Z,21.87
2022-08-03T15:51:40.433Z,22.52
2022-08-03T15:54:42.879Z,22.71
2022-08-03T15:59:04.324Z,22.80
2022-08-03T16:01:08.402Z,22.87
2022-08-03T16:04:11.249Z,23.14
2022-08-03T16:07:15.784Z,23.68
2022-08-03T16:10:18.728Z,23.38
2022-08-03T16:13:20.997Z,23.06
2022-08-03T16:16:23.723Z,23.78
2022-08-03T16:19:25.967Z,23.99
2022-08-03T16:22:28.651Z,24.37
2022-08-03T16:25:32.359Z,24.48
2022-08-03T16:28:38.056Z,24.87
2022-08-03T16:31:40.343Z,25.09
2022-08-03T16:34:54.139Z,25.08
2022-08-03T16:37:57.050Z,25.31
2022-08-03T16:41:00.028Z,25.19
2022-08-03T16:44:04.370Z,25.51
2022-08-03T16:47:21.922Z,25.88
2022-08-03T16:50:24.891Z,25.94
2022-08-03T16:53:51.767Z,26.15
2022-08-03T16:56:49.952Z,26.11
2022-08-03T16:59:52.650Z,26.43
2022-08-03T17:02:56.220Z,26.55
2022-08-03T17:05:59.664Z,26.55
2022-08-03T17:09:08.349Z,26.57
2022-08-03T17:12:13.010Z,26.46
2022-08-03T17:15:15.259Z,26.58
2022-08-03T17:18:19.162Z,27.08
2022-08-03T17:21:29.406Z,27.51
2022-08-03T17:24:35.059Z,28.27
2022-08-03T17:28:49.199Z,28.28
2022-08-03T17:31:23.040Z,28.68
2022-08-03T17:34:33.374Z,28.87
2022-08-03T17:37:57.915Z,29.32
2022-08-03T17:40:58.749Z,29.64
2022-08-03T17:44:15.668Z,29.81
2022-08-03T17:47:23.858Z,30.08
2022-08-03T17:50:41.462Z,30.18
2022-08-03T17:54:05.975Z,30.28
2022-08-03T17:57:29.014Z,30.40
2022-08-03T18:01:59.567Z,30.56
2022-08-03T18:04:42.203Z,30.73
2022-08-03T18:08:00.905Z,31.00
2022-08-03T18:11:14.555Z,31.35
2022-08-03T18:14:29.828Z,31.40
2022-08-03T18:17:54.658Z,31.46
2022-08-03T18:20:57.143Z,31.57
2022-08-03T18:24:02.894Z,31.83
2022-08-03T18:27:06.509Z,32.03
2022-08-03T18:30:09.518Z,32.14
2022-08-03T18:34:16.431Z,32.57
2022-08-03T18:36:45.921Z,35.36
2022-08-03T18:39:50.153Z,39.65
2022-08-03T18:42:55.815Z,40.43
2022-08-03T18:46:00.909Z,40.84
2022-08-03T18:49:08.221Z,39.69
2022-08-03T18:52:16.788Z,38.84
2022-08-03T18:55:40.614Z,39.60
2022-08-03T18:59:12.152Z,40.29
2022-08-03T19:02:38.783Z,40.14
2022-08-03T19:06:02.737Z,39.76
2022-08-03T19:09:20.125Z,39.89
2022-08-03T19:12:27.232Z,39.52
2022-08-03T19:15:51.394Z,38.29
2022-08-03T19:18:54.159Z,38.20
2022-08-03T19:21:58.504Z,38.20
2022-08-03T19:25:03.941Z,38.08
2022-08-03T19:28:07.415Z,36.81
2022-08-03T19:31:11.072Z,37.33
2022-08-03T19:34:18.406Z,37.61
2022-08-03T19:37:22.064Z,37.89
2022-08-03T19:40:26.795Z,37.95
2022-08-03T19:43:32.909Z,37.79
2022-08-03T19:47:00.577Z,37.42
2022-08-03T19:50:13.810Z,37.46
2022-08-03T19:53:17.727Z,37.51
2022-08-03T19:56:22.982Z,38.42
2022-08-03T19:59:26.719Z,38.94
2022-08-03T20:02:29.892Z,39.02
2022-08-03T20:05:45.131Z,39.21
2022-08-03T20:08:55.383Z,39.16
2022-08-03T20:12:01.941Z,39.27
2022-08-03T20:15:05.735Z,39.23
2022-08-03T20:18:08.781Z,39.07
2022-08-03T20:21:23.202Z,39.06
2022-08-03T20:24:28.038Z,38.78
2022-08-03T20:27:34.316Z,38.58
2022-08-03T20:30:57.160Z,38.06
2022-08-03T20:34:02.198Z,37.54
2022-08-03T20:37:05.051Z,37.59
2022-08-03T20:40:11.944Z,37.26
2022-08-03T20:43:15.798Z,37.14
2022-08-03T20:46:31.867Z,37.06
2022-08-03T20:49:45.985Z,36.99
2022-08-03T20:52:49.941Z,36.93
2022-08-03T20:56:02.123Z,37.08
2022-08-03T20:59:06.343Z,37.23
2022-08-03T21:02:11.703Z,37.29
2022-08-03T21:05:48.007Z,37.51
2022-08-03T21:08:48.104Z,37.90
2022-08-03T21:11:51.334Z,38.11
2022-08-03T21:15:02.195Z,38.22
2022-08-03T21:18:10.169Z,38.47
2022-08-03T21:21:14.091Z,38.71
2022-08-03T21:24:17.990Z,38.40
2022-08-03T21:27:20.870Z,38.34
2022-08-03T21:30:24.398Z,38.38
2022-08-03T21:33:27.842Z,38.21
2022-08-03T21:36:31.471Z,38.01
2022-08-03T21:39:34.688Z,37.93
2022-08-03T21:42:36.955Z,38.19
2022-08-03T21:45:45.657Z,38.19
2022-08-03T21:48:50.159Z,38.34
2022-08-03T21:51:54.068Z,38.37
2022-08-03T21:55:00.255Z,38.57
2022-08-03T21:58:04.184Z,38.98
2022-08-03T22:01:07.365Z,39.13
2022-08-03T22:04:11.941Z,39.15
2022-08-03T22:07:34.010Z,39.30
2022-08-03T22:10:36.917Z,39.25
2022-08-03T22:13:43.312Z,39.08
2022-08-03T22:16:49.117Z,39.05
2022-08-03T22:19:51.968Z,38.90
2022-08-03T22:22:56.937Z,38.89
2022-08-03T22:25:59.962Z,38.73
2022-08-03T22:29:06.119Z,38.75
2022-08-03T22:32:08.544Z,38.66
2022-08-03T22:35:12.748Z,38.66
2022-08-03T22:38:15.449Z,38.74
2022-08-03T22:41:18.855Z,38.91
2022-08-03T22:44:21.969Z,39.00
2022-08-03T22:47:24.903Z,38.86
2022-08-03T22:50:33.200Z,38.73
2022-08-03T22:53:36.761Z,38.88
2022-08-03T22:56:39.078Z,39.22
2022-08-03T22:59:44.739Z,39.55
2022-08-03T23:02:48.168Z,39.80
2022-08-03T23:06:02.592Z,40.17
2022-08-03T23:09:06.840Z,40.51
2022-08-03T23:12:13.640Z,40.79
2022-08-03T23:15:16.182Z,41.12
2022-08-03T23:18:19.530Z,41.52
2022-08-03T23:21:53.644Z,41.24
2022-08-03T23:24:44.693Z,41.36
2022-08-03T23:27:49.298Z,41.59
2022-08-03T23:31:08.623Z,41.81
2022-08-03T23:34:31.242Z,41.69
2022-08-03T23:37:34.724Z,41.77
2022-08-03T23:41:01.882Z,41.76
2022-08-03T23:44:05.104Z,41.63
2022-08-03T23:47:07.402Z,41.52
2022-08-03T23:50:10.051Z,41.16
2022-08-03T23:53:17.088Z,41.16
2022-08-03T23:56:52.151Z,41.05
2022-08-03T23:59:54.405Z,41.27
